createdAt,value
2018-02-08T00:00:15.549Z,-2.87
2018-02-08T00:01:15.534Z,-2.76
2018-02-08T00:02:15.528Z,-2.85
2018-02-08T00:03:15.514Z,-2.81
2018-02-08T00:04:15.509Z,-2.89
2018-02-08T00:05:15.501Z,-2.85
2018-02-08T00:06:15.490Z,-2.87
2018-02-08T00:07:15.473Z,-2.86
2018-02-08T00:08:15.464Z,-2.86
2018-02-08T00:09:15.456Z,-2.87
2018-02-08T00:10:15.441Z,-2.87
2018-02-08T00:11:15.431Z,-2.82
2018-02-08T00:12:15.423Z,-2.79
2018-02-08T00:13:15.425Z,-2.81
2018-02-08T00:14:15.401Z,-2.79
2018-02-08T00:15:15.392Z,-2.74
2018-02-08T00:16:15.381Z,-2.69
2018-02-08T00:17:15.372Z,-2.76
2018-02-08T00:18:15.360Z,-2.75
2018-02-08T00:19:15.348Z,-2.66
2018-02-08T00:20:15.338Z,-2.76
2018-02-08T00:21:15.331Z,-2.74
2018-02-08T00:22:15.319Z,-2.74
2018-02-08T00:23:15.306Z,-2.64
2018-02-08T00:24:15.297Z,-2.66
2018-02-08T00:25:15.288Z,-2.64
2018-02-08T00:26:15.281Z,-2.64
2018-02-08T00:27:15.269Z,-2.64
2018-02-08T00:28:15.256Z,-2.66
2018-02-08T00:29:15.249Z,-2.61
2018-02-08T00:30:15.239Z,-2.66
2018-02-08T00:31:15.226Z,-2.66
2018-02-08T00:32:15.217Z,-2.68
2018-02-08T00:33:15.211Z,-2.63
2018-02-08T00:34:15.196Z,-2.71
2018-02-08T00:35:15.187Z,-2.63
2018-02-08T00:36:15.176Z,-2.71
2018-02-08T00:37:15.164Z,-2.63
2018-02-08T00:38:15.155Z,-2.64
2018-02-08T00:39:15.143Z,-2.64
2018-02-08T00:40:15.181Z,-2.60
2018-02-08T00:41:15.122Z,-2.56
2018-02-08T00:42:15.113Z,-2.76
2018-02-08T00:43:15.101Z,-2.74
2018-02-08T00:44:15.129Z,-2.66
2018-02-08T00:45:15.087Z,-2.60
2018-02-08T00:46:15.077Z,-2.63
2018-02-08T00:47:15.062Z,-2.54
2018-02-08T00:48:15.051Z,-2.53
2018-02-08T00:49:15.065Z,-2.53
2018-02-08T00:50:15.035Z,-2.58
2018-02-08T00:51:15.020Z,-2.63
2018-02-08T00:52:15.016Z,-2.64
2018-02-08T00:53:15.001Z,-2.64
2018-02-08T00:54:14.995Z,-2.60
2018-02-08T00:55:14.983Z,-2.76
2018-02-08T00:56:14.970Z,-2.56
2018-02-08T00:57:14.961Z,-2.64
2018-02-08T00:58:14.951Z,-2.63
2018-02-08T00:59:14.945Z,-2.60
2018-02-08T01:00:14.932Z,-2.61
2018-02-08T01:01:14.925Z,-2.69
2018-02-08T01:02:14.911Z,-2.60
2018-02-08T01:03:14.900Z,-2.61
2018-02-08T01:04:14.894Z,-2.56
2018-02-08T01:05:14.886Z,-2.58
2018-02-08T01:06:14.871Z,-2.53
2018-02-08T01:07:14.861Z,-2.48
2018-02-08T01:08:14.852Z,-2.47
2018-02-08T01:09:14.849Z,-2.43
2018-02-08T01:10:14.838Z,-2.35
2018-02-08T01:11:14.819Z,-2.40
2018-02-08T01:12:14.833Z,-2.38
2018-02-08T01:13:14.804Z,-2.42
2018-02-08T01:14:14.794Z,-2.43
2018-02-08T01:15:14.792Z,-2.38
2018-02-08T01:16:14.776Z,-2.33
2018-02-08T01:17:14.764Z,-2.32
2018-02-08T01:18:14.753Z,-2.23
2018-02-08T01:19:14.738Z,-2.33
2018-02-08T01:20:14.732Z,-2.38
2018-02-08T01:21:14.721Z,-2.39
2018-02-08T01:22:14.716Z,-2.39
2018-02-08T01:23:14.701Z,-2.43
2018-02-08T01:24:14.690Z,-2.36
2018-02-08T01:25:14.679Z,-2.54
2018-02-08T01:26:14.670Z,-2.51
2018-02-08T01:27:14.661Z,-2.63
2018-02-08T01:28:14.653Z,-2.66
2018-02-08T01:29:14.642Z,-2.64
2018-02-08T01:30:14.633Z,-2.66
2018-02-08T01:31:14.636Z,-2.64
2018-02-08T01:32:14.626Z,-2.75
2018-02-08T01:33:14.602Z,-2.74
2018-02-08T01:34:14.589Z,-2.64
2018-02-08T01:35:14.589Z,-2.66
2018-02-08T01:36:14.569Z,-2.58
2018-02-08T01:37:14.558Z,-2.57
2018-02-08T01:38:14.550Z,-2.58
2018-02-08T01:39:14.539Z,-2.57
2018-02-08T01:40:14.530Z,-2.54
2018-02-08T01:41:14.519Z,-2.43
2018-02-08T01:42:14.508Z,-2.56
2018-02-08T01:43:14.506Z,-2.56
2018-02-08T01:44:14.498Z,-2.57
2018-02-08T01:45:14.481Z,-2.56
2018-02-08T01:46:14.468Z,-2.51
2018-02-08T01:47:14.458Z,-2.53
2018-02-08T01:48:14.450Z,-2.47
2018-02-08T01:49:14.439Z,-2.54
2018-02-08T01:50:14.434Z,-2.50
2018-02-08T01:51:14.420Z,-2.50
2018-02-08T01:52:14.406Z,-2.38
2018-02-08T01:53:14.398Z,-2.43
2018-02-08T01:54:14.393Z,-2.36
2018-02-08T01:55:14.383Z,-2.35
2018-02-08T01:56:14.371Z,-2.40
2018-02-08T01:57:14.369Z,-2.40
2018-02-08T01:58:14.348Z,-2.40
2018-02-08T01:59:14.338Z,-2.33
2018-02-08T02:00:14.328Z,-2.42
2018-02-08T02:01:14.316Z,-2.43
2018-02-08T02:02:14.308Z,-2.35
2018-02-08T02:03:14.302Z,-2.35
2018-02-08T02:04:14.290Z,-2.53
2018-02-08T02:05:14.281Z,-2.53
2018-02-08T02:06:14.268Z,-2.56
2018-02-08T02:07:14.263Z,-2.54
2018-02-08T02:08:14.252Z,-2.58
2018-02-08T02:09:14.238Z,-2.64
2018-02-08T02:10:14.233Z,-2.50
2018-02-08T02:11:14.220Z,-2.54
2018-02-08T02:12:14.211Z,-2.51
2018-02-08T02:13:14.198Z,-2.51
2018-02-08T02:14:14.188Z,-2.40
2018-02-08T02:15:14.179Z,-2.39
2018-02-08T02:16:14.175Z,-2.43
2018-02-08T02:17:14.156Z,-2.28
2018-02-08T02:18:14.154Z,-2.32
2018-02-08T02:19:14.136Z,-2.35
2018-02-08T02:20:14.128Z,-2.24
2018-02-08T02:21:14.118Z,-2.29
2018-02-08T02:22:14.109Z,-2.32
2018-02-08T02:23:14.099Z,-2.35
2018-02-08T02:24:14.088Z,-2.43
2018-02-08T02:25:14.095Z,-2.43
2018-02-08T02:26:14.831Z,-2.39
2018-02-08T02:27:14.061Z,-2.48
2018-02-08T02:28:14.053Z,-2.50
2018-02-08T02:29:14.043Z,-2.36
2018-02-08T02:30:14.032Z,-2.40
2018-02-08T02:31:14.020Z,-2.42
2018-02-08T02:32:14.011Z,-2.24
2018-02-08T02:33:14.002Z,-2.35
2018-02-08T02:34:14.000Z,-2.43
2018-02-08T02:35:13.983Z,-2.39
2018-02-08T02:36:13.979Z,-2.38
2018-02-08T02:37:13.961Z,-2.40
2018-02-08T02:38:13.950Z,-2.45
2018-02-08T02:39:13.938Z,-2.39
2018-02-08T02:40:13.928Z,-2.51
2018-02-08T02:41:13.919Z,-2.54
2018-02-08T02:42:13.915Z,-2.54
2018-02-08T02:43:13.900Z,-2.54
2018-02-08T02:44:13.890Z,-2.54
2018-02-08T02:45:13.880Z,-2.53
2018-02-08T02:46:13.872Z,-2.56
2018-02-08T02:47:13.860Z,-2.57
2018-02-08T02:48:13.854Z,-2.54
2018-02-08T02:49:13.839Z,-2.53
2018-02-08T02:50:13.830Z,-2.56
2018-02-08T02:51:13.819Z,-2.57
2018-02-08T02:52:13.810Z,-2.50
2018-02-08T02:53:13.798Z,-2.51
2018-02-08T02:54:13.793Z,-2.51
2018-02-08T02:55:13.781Z,-2.45
2018-02-08T02:56:13.770Z,-2.45
2018-02-08T02:57:13.757Z,-2.40
2018-02-08T02:58:13.749Z,-2.39
2018-02-08T02:59:13.744Z,-2.54
2018-02-08T03:00:13.728Z,-2.53
2018-02-08T03:01:13.724Z,-2.56
2018-02-08T03:02:13.715Z,-2.58
2018-02-08T03:03:13.703Z,-2.60
2018-02-08T03:04:13.712Z,-2.64
2018-02-08T03:05:13.684Z,-2.64
2018-02-08T03:06:13.676Z,-2.56
2018-02-08T03:07:13.697Z,-2.69
2018-02-08T03:08:13.647Z,-2.63
2018-02-08T03:09:13.784Z,-2.63
2018-02-08T03:10:13.627Z,-2.60
2018-02-08T03:11:13.623Z,-2.66
2018-02-08T03:12:13.611Z,-2.71
2018-02-08T03:13:13.598Z,-2.60
2018-02-08T03:14:14.335Z,-2.60
2018-02-08T03:15:13.580Z,-2.64
2018-02-08T03:16:13.572Z,-2.69
2018-02-08T03:17:13.561Z,-2.69
2018-02-08T03:18:13.572Z,-2.63
2018-02-08T03:19:14.395Z,-2.56
2018-02-08T03:20:13.532Z,-2.60
2018-02-08T03:21:13.535Z,-2.63
2018-02-08T03:22:13.509Z,-2.58
2018-02-08T03:23:13.507Z,-2.57
2018-02-08T03:24:13.486Z,-2.58
2018-02-08T03:25:13.478Z,-2.57
2018-02-08T03:26:13.476Z,-2.56
2018-02-08T03:27:13.456Z,-2.54
2018-02-08T03:28:13.448Z,-2.53
2018-02-08T03:29:13.439Z,-2.48
2018-02-08T03:30:13.430Z,-2.53
2018-02-08T03:31:13.421Z,-2.47
2018-02-08T03:32:13.412Z,-2.48
2018-02-08T03:33:13.401Z,-2.40
2018-02-08T03:34:13.389Z,-2.40
2018-02-08T03:35:13.380Z,-2.35
2018-02-08T03:36:14.330Z,-2.43
2018-02-08T03:37:13.365Z,-2.39
2018-02-08T03:38:13.352Z,-2.40
2018-02-08T03:39:13.340Z,-2.43
2018-02-08T03:40:13.327Z,-2.40
2018-02-08T03:41:13.315Z,-2.42
2018-02-08T03:42:13.312Z,-2.50
2018-02-08T03:43:13.294Z,-2.51
2018-02-08T03:44:13.285Z,-2.57
2018-02-08T03:45:13.279Z,-2.54
2018-02-08T03:46:13.269Z,-2.57
2018-02-08T03:47:13.257Z,-2.53
2018-02-08T03:48:13.245Z,-2.68
2018-02-08T03:49:13.235Z,-2.68
2018-02-08T03:50:13.228Z,-2.58
2018-02-08T03:51:13.213Z,-2.54
2018-02-08T03:52:13.203Z,-2.54
2018-02-08T03:53:13.193Z,-2.53
2018-02-08T03:54:13.186Z,-2.53
2018-02-08T03:55:13.837Z,-2.56
2018-02-08T03:56:13.164Z,-2.51
2018-02-08T03:57:13.152Z,-2.54
2018-02-08T03:58:13.144Z,-2.54
2018-02-08T03:59:13.133Z,-2.56
2018-02-08T04:00:13.123Z,-2.53
2018-02-08T04:01:13.844Z,-2.47
2018-02-08T04:02:13.105Z,-2.48
2018-02-08T04:03:13.102Z,-2.50
2018-02-08T04:04:13.085Z,-2.38
2018-02-08T04:05:13.072Z,-2.48
2018-02-08T04:06:13.062Z,-2.38
2018-02-08T04:07:13.055Z,-2.50
2018-02-08T04:08:13.045Z,-2.51
2018-02-08T04:09:13.053Z,-2.50
2018-02-08T04:10:13.031Z,-2.54
2018-02-08T04:11:13.038Z,-2.51
2018-02-08T04:12:13.003Z,-2.47
2018-02-08T04:13:12.992Z,-2.38
2018-02-08T04:14:12.982Z,-2.45
2018-02-08T04:15:12.978Z,-2.38
2018-02-08T04:16:12.970Z,-2.36
2018-02-08T04:17:12.953Z,-2.47
2018-02-08T04:18:12.944Z,-2.38
2018-02-08T04:19:12.934Z,-2.40
2018-02-08T04:20:12.926Z,-2.48
2018-02-08T04:21:12.913Z,-2.43
2018-02-08T04:22:12.903Z,-2.48
2018-02-08T04:23:12.892Z,-2.38
2018-02-08T04:24:12.883Z,-2.38
2018-02-08T04:25:12.874Z,-2.45
2018-02-08T04:26:12.865Z,-2.40
2018-02-08T04:27:12.856Z,-2.51
2018-02-08T04:28:12.839Z,-2.51
2018-02-08T04:29:12.830Z,-2.47
2018-02-08T04:30:12.820Z,-2.54
2018-02-08T04:31:12.810Z,-2.57
2018-02-08T04:32:12.806Z,-2.61
2018-02-08T04:33:12.800Z,-2.60
2018-02-08T04:34:12.782Z,-2.60
2018-02-08T04:35:12.770Z,-2.63
2018-02-08T04:36:12.763Z,-2.63
2018-02-08T04:37:12.750Z,-2.60
2018-02-08T04:38:12.748Z,-2.63
2018-02-08T04:39:12.731Z,-2.63
2018-02-08T04:40:12.723Z,-2.64
2018-02-08T04:41:12.712Z,-2.64
2018-02-08T04:42:12.715Z,-2.57
2018-02-08T04:43:12.699Z,-2.57
2018-02-08T04:44:12.679Z,-2.60
2018-02-08T04:45:12.670Z,-2.60
2018-02-08T04:46:12.657Z,-2.57
2018-02-08T04:47:12.652Z,-2.53
2018-02-08T04:48:13.329Z,-2.53
2018-02-08T04:49:12.636Z,-2.56
2018-02-08T04:50:12.628Z,-2.57
2018-02-08T04:51:12.611Z,-2.53
2018-02-08T04:52:12.601Z,-2.54
2018-02-08T04:53:12.590Z,-2.50
2018-02-08T04:54:12.578Z,-2.54
2018-02-08T04:55:12.576Z,-2.60
2018-02-08T04:56:12.561Z,-2.47
2018-02-08T04:57:12.555Z,-2.56
2018-02-08T04:58:12.537Z,-2.53
2018-02-08T04:59:12.528Z,-2.51
2018-02-08T05:00:12.520Z,-2.54
2018-02-08T05:01:12.508Z,-2.56
2018-02-08T05:02:12.497Z,-2.56
2018-02-08T05:03:12.486Z,-2.58
2018-02-08T05:04:12.477Z,-2.51
2018-02-08T05:05:12.468Z,-2.56
2018-02-08T05:06:12.454Z,-2.56
2018-02-08T05:07:12.445Z,-2.63
2018-02-08T05:08:12.436Z,-2.61
2018-02-08T05:09:12.431Z,-2.60
2018-02-08T05:10:12.416Z,-2.56
2018-02-08T05:11:12.406Z,-2.61
2018-02-08T05:12:12.393Z,-2.58
2018-02-08T05:13:12.387Z,-2.57
2018-02-08T05:14:12.373Z,-2.58
2018-02-08T05:15:12.365Z,-2.57
2018-02-08T05:16:12.358Z,-2.51
2018-02-08T05:17:12.401Z,-2.54
2018-02-08T05:18:12.334Z,-2.54
2018-02-08T05:19:12.322Z,-2.51
2018-02-08T05:20:12.312Z,-2.51
2018-02-08T05:21:12.304Z,-2.51
2018-02-08T05:22:12.334Z,-2.50
2018-02-08T05:23:12.281Z,-2.48
2018-02-08T05:24:12.272Z,-2.51
2018-02-08T05:25:12.260Z,-2.50
2018-02-08T05:26:12.254Z,-2.33
2018-02-08T05:27:12.241Z,-2.40
2018-02-08T05:28:12.230Z,-2.39
2018-02-08T05:29:12.223Z,-2.43
2018-02-08T05:30:12.217Z,-2.33
2018-02-08T05:31:12.205Z,-2.24
2018-02-08T05:32:12.191Z,-2.33
2018-02-08T05:33:12.182Z,-2.32
2018-02-08T05:34:12.180Z,-2.39
2018-02-08T05:35:12.167Z,-2.33
2018-02-08T05:36:12.155Z,-2.33
2018-02-08T05:37:12.150Z,-2.36
2018-02-08T05:38:12.178Z,-2.35
2018-02-08T05:39:12.140Z,-2.35
2018-02-08T05:40:12.112Z,-2.36
2018-02-08T05:41:12.126Z,-2.35
2018-02-08T05:42:12.090Z,-2.29
2018-02-08T05:43:12.081Z,-2.17
2018-02-08T05:44:12.106Z,-2.26
2018-02-08T05:45:12.075Z,-2.23
2018-02-08T05:46:12.056Z,-2.14
2018-02-08T05:47:12.071Z,-2.23
2018-02-08T05:48:12.076Z,-2.28
2018-02-08T05:49:12.080Z,-2.23
2018-02-08T05:50:12.055Z,-2.21
2018-02-08T05:51:12.011Z,-2.17
2018-02-08T05:52:12.049Z,-2.26
2018-02-08T05:53:11.989Z,-2.24
2018-02-08T05:54:11.994Z,-2.24
2018-02-08T05:55:11.989Z,-2.20
2018-02-08T05:56:11.961Z,-2.28
2018-02-08T05:57:11.970Z,-2.23
2018-02-08T05:58:11.931Z,-2.18
2018-02-08T05:59:11.923Z,-2.16
2018-02-08T06:00:11.948Z,-2.21
2018-02-08T06:01:11.925Z,-2.18
2018-02-08T06:02:11.904Z,-2.17
2018-02-08T06:03:11.881Z,-2.28
2018-02-08T06:04:11.875Z,-2.21
2018-02-08T06:05:11.889Z,-2.24
2018-02-08T06:06:11.859Z,-2.29
2018-02-08T06:07:11.845Z,-2.33
2018-02-08T06:08:11.837Z,-2.23
2018-02-08T06:09:11.826Z,-2.24
2018-02-08T06:10:11.814Z,-2.23
2018-02-08T06:11:11.802Z,-2.24
2018-02-08T06:12:11.792Z,-2.17
2018-02-08T06:13:11.785Z,-2.18
2018-02-08T06:14:11.774Z,-2.20
2018-02-08T06:15:11.766Z,-2.14
2018-02-08T06:16:11.755Z,-2.14
2018-02-08T06:17:11.744Z,-2.11
2018-02-08T06:18:11.733Z,-2.10
2018-02-08T06:19:11.725Z,-2.13
2018-02-08T06:20:11.719Z,-2.03
2018-02-08T06:21:11.706Z,-1.98
2018-02-08T06:22:11.699Z,-2.03
2018-02-08T06:23:11.683Z,-2.03
2018-02-08T06:24:11.680Z,-2.10
2018-02-08T06:25:11.668Z,-2.14
2018-02-08T06:26:11.656Z,-2.02
2018-02-08T06:27:11.644Z,-2.16
2018-02-08T06:28:11.651Z,-2.10
2018-02-08T06:29:11.632Z,-2.21
2018-02-08T06:30:11.649Z,-2.24
2018-02-08T06:31:11.615Z,-2.26
2018-02-08T06:32:11.602Z,-2.23
2018-02-08T06:33:11.586Z,-2.29
2018-02-08T06:34:11.578Z,-2.18
2018-02-08T06:35:11.570Z,-2.23
2018-02-08T06:36:11.559Z,-2.26
2018-02-08T06:37:11.563Z,-2.23
2018-02-08T06:38:11.543Z,-2.13
2018-02-08T06:39:11.531Z,-2.23
2018-02-08T06:40:11.518Z,-2.16
2018-02-08T06:41:11.515Z,-2.20
2018-02-08T06:42:11.506Z,-2.21
2018-02-08T06:43:11.492Z,-2.20
2018-02-08T06:44:11.480Z,-2.13
2018-02-08T06:45:11.477Z,-2.18
2018-02-08T06:46:11.463Z,-2.20
2018-02-08T06:47:11.452Z,-2.20
2018-02-08T06:48:11.442Z,-2.21
2018-02-08T06:49:11.433Z,-2.18
2018-02-08T06:50:11.443Z,-2.26
2018-02-08T06:51:11.420Z,-2.24
2018-02-08T06:52:11.406Z,-2.29
2018-02-08T06:53:11.400Z,-2.29
2018-02-08T06:54:11.383Z,-2.35
2018-02-08T06:55:11.378Z,-2.32
2018-02-08T06:56:11.364Z,-2.33
2018-02-08T06:57:11.358Z,-2.32
2018-02-08T06:58:11.351Z,-2.26
2018-02-08T06:59:11.335Z,-2.40
2018-02-08T07:00:11.324Z,-2.45
2018-02-08T07:01:11.314Z,-2.40
2018-02-08T07:02:11.358Z,-2.38
2018-02-08T07:03:11.296Z,-2.48
2018-02-08T07:04:11.287Z,-2.42
2018-02-08T07:05:11.276Z,-2.38
2018-02-08T07:06:11.279Z,-2.36
2018-02-08T07:07:11.260Z,-2.36
2018-02-08T07:08:11.251Z,-2.45
2018-02-08T07:09:11.240Z,-2.40
2018-02-08T07:10:11.226Z,-2.38
2018-02-08T07:11:11.221Z,-2.33
2018-02-08T07:12:11.207Z,-2.38
2018-02-08T07:13:11.202Z,-2.32
2018-02-08T07:14:11.185Z,-2.28
2018-02-08T07:15:11.180Z,-2.35
2018-02-08T07:16:11.166Z,-2.35
2018-02-08T07:17:11.158Z,-2.29
2018-02-08T07:18:11.182Z,-2.29
2018-02-08T07:19:11.146Z,-2.36
2018-02-08T07:20:11.130Z,-2.32
2018-02-08T07:21:11.120Z,-2.16
2018-02-08T07:22:11.123Z,-2.23
2018-02-08T07:23:11.101Z,-2.24
2018-02-08T07:24:11.090Z,-2.10
2018-02-08T07:25:11.084Z,-2.17
2018-02-08T07:26:11.072Z,-2.18
2018-02-08T07:27:11.064Z,-2.23
2018-02-08T07:28:11.052Z,-2.18
2018-02-08T07:29:11.041Z,-2.16
2018-02-08T07:30:11.031Z,-2.10
2018-02-08T07:31:11.024Z,-2.11
2018-02-08T07:32:11.018Z,-2.06
2018-02-08T07:33:11.029Z,-2.13
2018-02-08T07:34:10.997Z,-1.96
2018-02-08T07:35:10.980Z,-2.11
2018-02-08T07:36:10.974Z,-2.02
2018-02-08T07:37:10.966Z,-2.06
2018-02-08T07:38:10.959Z,-2.02
2018-02-08T07:39:10.945Z,-2.02
2018-02-08T07:40:10.949Z,-2.11
2018-02-08T07:41:10.969Z,-2.11
2018-02-08T07:42:10.917Z,-2.11
2018-02-08T07:43:10.908Z,-2.20
2018-02-08T07:44:10.935Z,-2.10
2018-02-08T07:45:10.887Z,-2.24
2018-02-08T07:46:10.878Z,-2.21
2018-02-08T07:47:10.868Z,-2.20
2018-02-08T07:48:10.860Z,-2.13
2018-02-08T07:49:10.852Z,-2.10
2018-02-08T07:50:10.846Z,-2.11
2018-02-08T07:51:10.830Z,-1.99
2018-02-08T07:52:10.823Z,-1.99
2018-02-08T07:53:10.812Z,-1.96
2018-02-08T07:54:10.811Z,-1.96
2018-02-08T07:55:10.791Z,-1.99
2018-02-08T07:56:10.781Z,-1.98
2018-02-08T07:57:10.772Z,-2.14
2018-02-08T07:58:10.764Z,-2.14
2018-02-08T07:59:10.766Z,-2.16
2018-02-08T08:00:10.743Z,-2.18
2018-02-08T08:01:10.744Z,-2.05
2018-02-08T08:02:20.354Z,-2.06
2018-02-08T08:04:05.189Z,-1.96
2018-02-08T08:05:13.773Z,-1.99
2018-02-08T08:06:59.482Z,-1.96
2018-02-08T08:07:59.432Z,-1.80
2018-02-08T08:09:53.813Z,-1.82
2018-02-08T08:10:53.862Z,-1.78
2018-02-08T08:12:48.148Z,-1.70
2018-02-08T08:13:48.088Z,-1.67
2018-02-08T08:15:42.461Z,-1.72
2018-02-08T08:16:42.452Z,-1.67
2018-02-08T08:18:37.008Z,-1.60
2018-02-08T08:19:36.774Z,-1.54
2018-02-08T08:21:34.116Z,-1.56
2018-02-08T08:25:48.468Z,-1.46
2018-02-08T08:26:48.378Z,-1.42
2018-02-08T08:28:42.803Z,-1.43
2018-02-08T08:29:42.594Z,-1.49
2018-02-08T08:31:37.043Z,-1.41
2018-02-08T08:32:36.865Z,-1.41
2018-02-08T08:34:31.260Z,-1.36
2018-02-08T08:35:31.283Z,-1.49
2018-02-08T08:36:31.260Z,-1.35
2018-02-08T08:37:31.237Z,-1.28
2018-02-08T08:38:31.227Z,-1.27
2018-02-08T08:39:31.179Z,-1.24
2018-02-08T08:40:31.168Z,-1.35
2018-02-08T08:41:32.903Z,-1.23
2018-02-08T08:42:31.287Z,-1.23
2018-02-08T08:43:31.140Z,-1.24
2018-02-08T08:44:31.144Z,-1.24
2018-02-08T08:45:31.125Z,-1.25
2018-02-08T08:46:31.120Z,-1.23
2018-02-08T08:47:31.106Z,-1.30
2018-02-08T08:48:31.095Z,-1.30
2018-02-08T08:49:31.086Z,-1.23
2018-02-08T08:50:31.106Z,-1.21
2018-02-08T08:51:31.080Z,-1.13
2018-02-08T08:52:31.062Z,-1.10
2018-02-08T08:53:31.055Z,-1.15
2018-02-08T08:54:31.046Z,-1.15
2018-02-08T08:55:31.033Z,-1.24
2018-02-08T08:56:31.024Z,-1.27
2018-02-08T08:57:31.019Z,-1.28
2018-02-08T08:58:31.008Z,-1.21
2018-02-08T08:59:31.017Z,-1.24
2018-02-08T09:00:30.998Z,-1.24
2018-02-08T09:01:30.981Z,-1.25
2018-02-08T09:02:30.978Z,-1.20
2018-02-08T09:03:30.964Z,-1.13
2018-02-08T09:04:30.952Z,-1.09
2018-02-08T09:05:30.946Z,-0.99
2018-02-08T09:06:30.939Z,-1.00
2018-02-08T09:07:30.934Z,-1.09
2018-02-08T09:08:30.920Z,-1.17
2018-02-08T09:09:30.914Z,-1.20
2018-02-08T09:10:30.907Z,-1.05
2018-02-08T09:11:30.895Z,-0.94
2018-02-08T09:12:30.885Z,-1.05
2018-02-08T09:13:30.878Z,-1.02
2018-02-08T09:14:30.875Z,-0.97
2018-02-08T09:15:30.859Z,-1.05
2018-02-08T09:16:30.856Z,-1.00
2018-02-08T09:17:30.843Z,-1.06
2018-02-08T09:18:30.835Z,-0.95
2018-02-08T09:19:30.826Z,-1.02
2018-02-08T09:20:30.816Z,-0.87
2018-02-08T09:21:30.813Z,-0.89
2018-02-08T09:22:30.801Z,-0.84
2018-02-08T09:23:30.825Z,-0.83
2018-02-08T09:24:30.796Z,-0.78
2018-02-08T09:25:30.787Z,-0.95
2018-02-08T09:26:30.767Z,-0.84
2018-02-08T09:27:30.764Z,-0.89
2018-02-08T09:28:30.751Z,-0.84
2018-02-08T09:29:30.746Z,-0.91
2018-02-08T09:30:30.735Z,-0.94
2018-02-08T09:31:30.726Z,-1.00
2018-02-08T09:32:30.716Z,-0.94
2018-02-08T09:33:30.710Z,-0.83
2018-02-08T09:34:30.709Z,-0.91
2018-02-08T09:35:30.696Z,-1.03
2018-02-08T09:36:30.737Z,-1.09
2018-02-08T09:37:30.675Z,-1.15
2018-02-08T09:38:30.667Z,-1.10
2018-02-08T09:39:30.664Z,-1.10
2018-02-08T09:40:30.649Z,-1.23
2018-02-08T09:41:30.642Z,-1.21
2018-02-08T09:42:30.642Z,-1.25
2018-02-08T09:43:30.626Z,-1.13
2018-02-08T09:44:30.615Z,-1.00
2018-02-08T09:45:30.609Z,-0.99
2018-02-08T09:46:30.615Z,-0.92
2018-02-08T09:47:30.596Z,-0.83
2018-02-08T09:48:30.588Z,-0.78
2018-02-08T09:49:30.575Z,-0.77
2018-02-08T09:50:30.570Z,-0.68
2018-02-08T09:51:30.561Z,-0.63
2018-02-08T09:52:30.552Z,-0.62
2018-02-08T09:53:30.560Z,-0.57
2018-02-08T09:54:30.537Z,-0.42
2018-02-08T09:55:30.525Z,-0.48
2018-02-08T09:56:32.281Z,-0.44
2018-02-08T09:57:30.533Z,-0.31
2018-02-08T09:58:30.501Z,-0.41
2018-02-08T09:59:30.507Z,-0.41
2018-02-08T10:00:30.485Z,-0.65
2018-02-08T10:01:30.479Z,-0.60
2018-02-08T10:02:30.473Z,-0.54
2018-02-08T10:03:30.463Z,-0.52
2018-02-08T10:04:30.498Z,-0.37
2018-02-08T10:05:30.449Z,0.05
2018-02-08T10:06:32.300Z,0.16
2018-02-08T10:07:30.444Z,0.24
2018-02-08T10:08:30.431Z,0.38
2018-02-08T10:09:30.419Z,0.27
2018-02-08T10:10:30.460Z,0.48
2018-02-08T10:11:32.284Z,0.43
2018-02-08T10:12:30.405Z,0.61
2018-02-08T10:13:30.395Z,0.72
2018-02-08T10:14:30.461Z,0.79
2018-02-08T10:15:30.380Z,0.90
2018-02-08T10:16:30.384Z,0.90
2018-02-08T10:17:30.370Z,1.00
2018-02-08T10:18:30.366Z,0.98
2018-02-08T10:19:30.358Z,1.08
2018-02-08T10:20:30.354Z,1.22
2018-02-08T10:21:30.346Z,1.24
2018-02-08T10:22:30.348Z,1.29
2018-02-08T10:23:30.340Z,1.42
2018-02-08T10:24:30.336Z,1.47
2018-02-08T10:25:30.332Z,1.51
2018-02-08T10:26:30.332Z,1.34
2018-02-08T10:27:30.346Z,1.40
2018-02-08T10:28:30.320Z,1.29
2018-02-08T10:29:30.322Z,1.04
2018-02-08T10:30:30.340Z,1.21
2018-02-08T10:31:30.317Z,1.57
2018-02-08T10:32:30.384Z,1.85
2018-02-08T10:33:30.313Z,2.06
2018-02-08T10:34:30.301Z,2.17
2018-02-08T10:35:30.295Z,2.06
2018-02-08T10:36:30.304Z,2.22
2018-02-08T10:37:30.303Z,2.34
2018-02-08T10:38:30.297Z,2.44
2018-02-08T10:39:30.309Z,2.22
2018-02-08T10:40:30.335Z,2.01
2018-02-08T10:41:30.302Z,1.89
2018-02-08T10:42:30.305Z,1.89
2018-02-08T10:43:30.308Z,2.02
2018-02-08T10:44:30.297Z,2.06
2018-02-08T10:45:30.299Z,2.17
2018-02-08T10:46:30.320Z,1.94
2018-02-08T10:47:30.304Z,2.08
2018-02-08T10:48:30.303Z,2.04
2018-02-08T10:49:30.301Z,1.87
2018-02-08T10:50:30.301Z,1.80
2018-02-08T10:51:30.309Z,1.98
2018-02-08T10:52:30.303Z,2.13
2018-02-08T10:53:30.302Z,2.06
2018-02-08T10:54:30.303Z,2.09
2018-02-08T10:55:30.307Z,2.04
2018-02-08T10:56:30.310Z,2.23
2018-02-08T10:57:30.303Z,2.35
2018-02-08T10:58:30.321Z,2.15
2018-02-08T10:59:30.303Z,2.08
2018-02-08T11:00:30.297Z,2.08
2018-02-08T11:01:30.301Z,2.01
2018-02-08T11:02:30.297Z,2.15
2018-02-08T11:03:30.295Z,2.13
2018-02-08T11:04:30.345Z,2.06
2018-02-08T11:05:30.291Z,1.99
2018-02-08T11:06:30.288Z,1.54
2018-02-08T11:07:30.286Z,1.19
2018-02-08T11:08:30.286Z,1.33
2018-02-08T11:09:30.279Z,1.10
2018-02-08T11:10:30.278Z,1.16
2018-02-08T11:11:30.275Z,1.10
2018-02-08T11:12:30.271Z,1.14
2018-02-08T11:13:30.280Z,1.18
2018-02-08T11:14:30.265Z,1.10
2018-02-08T11:15:30.262Z,1.06
2018-02-08T11:16:30.257Z,1.10
2018-02-08T11:17:30.254Z,1.22
2018-02-08T11:18:30.250Z,1.21
2018-02-08T11:19:30.247Z,1.34
2018-02-08T11:20:30.244Z,1.43
2018-02-08T11:21:30.241Z,1.55
2018-02-08T11:22:30.235Z,1.78
2018-02-08T11:23:30.231Z,1.76
2018-02-08T11:24:30.234Z,2.01
2018-02-08T11:25:30.226Z,1.97
2018-02-08T11:26:30.220Z,2.08
2018-02-08T11:27:30.217Z,1.83
2018-02-08T11:28:30.216Z,1.78
2018-02-08T11:29:30.211Z,1.75
2018-02-08T11:30:30.203Z,1.79
2018-02-08T11:31:30.201Z,1.79
2018-02-08T11:32:30.196Z,1.98
2018-02-08T11:33:30.191Z,1.99
2018-02-08T11:34:30.187Z,2.22
2018-02-08T11:35:30.181Z,2.44
2018-02-08T11:36:30.182Z,2.58
2018-02-08T11:37:30.175Z,2.37
2018-02-08T11:38:30.173Z,2.22
2018-02-08T11:39:30.185Z,2.19
2018-02-08T11:40:30.161Z,2.08
2018-02-08T11:41:30.156Z,1.90
2018-02-08T11:42:30.153Z,1.91
2018-02-08T11:43:30.151Z,2.04
2018-02-08T11:44:30.143Z,2.04
2018-02-08T11:45:30.139Z,1.99
2018-02-08T11:46:30.145Z,2.04
2018-02-08T11:47:30.133Z,2.02
2018-02-08T11:48:30.125Z,1.94
2018-02-08T11:49:30.125Z,1.75
2018-02-08T11:50:30.119Z,1.69
2018-02-08T11:51:30.116Z,1.79
2018-02-08T11:52:30.108Z,1.90
2018-02-08T11:53:30.102Z,2.01
2018-02-08T11:54:30.099Z,2.09
2018-02-08T11:55:30.101Z,2.08
2018-02-08T11:56:30.099Z,1.82
2018-02-08T11:57:30.087Z,1.73
2018-02-08T11:58:30.083Z,1.79
2018-02-08T11:59:30.082Z,1.76
2018-02-08T12:00:30.072Z,2.06
2018-02-08T12:01:30.070Z,2.08
2018-02-08T12:02:30.062Z,2.08
2018-02-08T12:03:30.057Z,2.04
2018-02-08T12:04:30.056Z,2.10
2018-02-08T12:05:30.054Z,2.04
2018-02-08T12:06:30.043Z,2.06
2018-02-08T12:07:30.042Z,2.04
2018-02-08T12:08:30.032Z,1.93
2018-02-08T12:09:30.029Z,1.99
2018-02-08T12:10:30.024Z,2.02
2018-02-08T12:11:30.018Z,2.12
2018-02-08T12:12:30.014Z,2.19
2018-02-08T12:13:30.008Z,2.23
2018-02-08T12:14:30.008Z,2.30
2018-02-08T12:15:29.998Z,2.22
2018-02-08T12:16:30.000Z,2.27
2018-02-08T12:17:29.988Z,2.19
2018-02-08T12:18:29.983Z,2.33
2018-02-08T12:19:29.978Z,2.35
2018-02-08T12:20:29.976Z,2.22
2018-02-08T12:21:29.971Z,2.19
2018-02-08T12:22:29.964Z,2.26
2018-02-08T12:23:29.959Z,2.10
2018-02-08T12:24:29.953Z,2.08
2018-02-08T12:25:29.947Z,1.90
2018-02-08T12:26:29.941Z,1.89
2018-02-08T12:27:29.937Z,1.72
2018-02-08T12:28:29.939Z,1.69
2018-02-08T12:29:29.933Z,1.79
2018-02-08T12:30:29.921Z,1.82
2018-02-08T12:31:29.917Z,1.79
2018-02-08T12:32:29.910Z,1.72
2018-02-08T12:33:29.906Z,1.52
2018-02-08T12:34:29.901Z,1.60
2018-02-08T12:35:29.920Z,1.57
2018-02-08T12:36:29.892Z,1.50
2018-02-08T12:37:29.886Z,1.47
2018-02-08T12:38:29.881Z,1.39
2018-02-08T12:39:29.875Z,1.39
2018-02-08T12:40:29.868Z,1.43
2018-02-08T12:41:29.878Z,1.46
2018-02-08T12:42:29.862Z,1.52
2018-02-08T12:43:29.880Z,1.57
2018-02-08T12:44:29.847Z,1.68
2018-02-08T12:45:29.841Z,1.68
2018-02-08T12:46:29.840Z,1.65
2018-02-08T12:47:29.830Z,1.69
2018-02-08T12:48:29.825Z,1.72
2018-02-08T12:49:29.819Z,1.71
2018-02-08T12:50:29.814Z,1.73
2018-02-08T12:51:29.808Z,1.65
2018-02-08T12:52:29.804Z,1.64
2018-02-08T12:53:29.803Z,1.78
2018-02-08T12:54:29.793Z,1.85
2018-02-08T12:55:29.791Z,1.91
2018-02-08T12:56:29.780Z,1.83
2018-02-08T12:57:29.776Z,1.90
2018-02-08T12:58:29.775Z,1.80
2018-02-08T12:59:29.770Z,1.75
2018-02-08T13:00:29.756Z,1.80
2018-02-08T13:01:29.752Z,1.62
2018-02-08T13:02:29.751Z,1.65
2018-02-08T13:03:29.741Z,1.60
2018-02-08T13:04:29.843Z,1.64
2018-02-08T13:05:29.729Z,1.64
2018-02-08T13:06:29.725Z,1.69
2018-02-08T13:07:29.722Z,1.68
2018-02-08T13:08:29.712Z,1.65
2018-02-08T13:09:29.708Z,1.55
2018-02-08T13:10:29.707Z,1.55